Página principal
METAR-TAF:

METAR-TAF

Aeroportos :

Ahvaz, Irão

latitude: 31-20N, longitude: 048-40E, altura: 20 m

Observação actual do tempo

O boletim foi feito há 17 minutos, às 21:00 UTC
Vento 4 kt de nor-noroeste
Temperatura 15°C
Humidade 88%
Pressão 1022 hPa
Visibilidade: 5000 m
neblina

METAR: OIAW 142100Z 33004KT 5000 BR NSC 15/13 Q1022

Hora: 00:47 (21:17 UTC)

Previsão

O boletim foi feito há 3 horas e 27 minutos, às 17:50 UTC
Previsão válida de 14 às 18 UTC a 15 às 24 UTC
Vento 6 kt de noroeste
Visibilidade: 7000 m
Tornando-se
de 15 às 00 UTC a 15 às 01 UTC
Visibilidade: 3000 m
neblina
Tornando-se
de 15 às 05 UTC a 15 às 06 UTC
Visibilidade: 6000 m
Tornando-se
de 15 às 23 UTC a 15 às 24 UTC
Visibilidade: 5000 m
neblina

TAF: OIAW 141750Z 1418/1524 32003MPS 7000 NSC BECMG 1500/1501 3000 BR BECMG 1505/1506 6000 BECMG 1523/1524 5000 BR

Observações e previsões do tempo de mais de 4000 aeroportos (mensagens METAR e TAF).

As estações disponíveis são os pontos amarelos e vermelhos sobre o mapa.

Mova o rato sobre o mapa para ver o nome da estação.

Depois clique no ponto para visualizar as observações e previsões meteorológicas.

Para alterar o mapa : clique nos botões verdes com uma cruz preta para aumentar o zoom; no botão verde com uma pitada de zoom; ou nas setas verdes para mapas adjacentes.


METAR-TAF: